SLSB/SRJ METAR and TAF weather

Enter ICAO airport designator
Station Type Date Time Source
SLSB METAR 2019/06/21 19:00 UTC NOAA

SLSB 211900Z 00000KT 9999 NSC 31/23 Q1015


Station Type Date Time Source
SLSB Decoded METAR 2019/06/21 19:00 UTC NOAA

San Borja, Bolivia (SLSB) 14-52S 066-52W
Jun 21, 2019 - 03:00 PM EDT / 2019.06.21 1900 UTC
Wind: Calm:0
Visibility: greater than 7 mile(s):0
Temperature: 87 F (31 C)
Heat index: 93.9 F (34.4 C):1
Dew Point: 73 F (23 C)
Relative Humidity: 62%
Pressure (altimeter): 29.97 in. Hg (1015 hPa)
ob: SLSB 211900Z 00000KT 9999 NSC 31/23 Q1015
cycle: 19

Station Type Date Time Source
SLSB TAF UTC NOAA

Error!

Example: see airport list